createdAt,value
2024-01-24T00:00:14.050Z,3.60
2024-01-24T00:02:41.700Z,4.30
2024-01-24T00:05:09.491Z,5.40
2024-01-24T00:07:37.321Z,3.60
2024-01-24T00:10:05.699Z,4.00
2024-01-24T00:12:33.341Z,3.80
2024-01-24T00:15:01.159Z,6.50
2024-01-24T00:17:28.621Z,5.30
2024-01-24T00:19:56.239Z,3.80
2024-01-24T00:22:23.792Z,3.80
2024-01-24T00:24:51.228Z,1.40
2024-01-24T00:27:19.362Z,2.90
2024-01-24T00:29:46.878Z,3.10
2024-01-24T00:32:14.235Z,2.80
2024-01-24T00:34:41.928Z,3.90
2024-01-24T00:37:09.555Z,3.30
2024-01-24T00:39:37.338Z,3.50
2024-01-24T00:42:05.190Z,3.80
2024-01-24T00:44:32.636Z,1.60
2024-01-24T00:47:00.092Z,2.10
2024-01-24T00:49:27.729Z,3.00
2024-01-24T00:51:55.435Z,2.80
2024-01-24T00:54:23.047Z,3.10
2024-01-24T00:56:50.730Z,1.90
2024-01-24T00:59:19.418Z,1.60
2024-01-24T01:01:46.878Z,1.00
2024-01-24T01:04:14.646Z,1.80
2024-01-24T01:06:42.342Z,1.80
2024-01-24T01:09:09.906Z,1.80
2024-01-24T01:11:37.504Z,2.90
2024-01-24T01:14:05.061Z,3.70
2024-01-24T01:16:32.825Z,1.40
2024-01-24T01:19:00.519Z,2.40
2024-01-24T01:21:28.136Z,2.30
2024-01-24T01:23:55.805Z,2.50
2024-01-24T01:26:23.363Z,2.00
2024-01-24T01:28:50.832Z,1.70
2024-01-24T01:31:18.371Z,2.40
2024-01-24T01:33:46.035Z,1.80
2024-01-24T01:36:18.475Z,2.40
2024-01-24T01:38:51.315Z,2.20
2024-01-24T01:41:18.862Z,1.40
2024-01-24T01:43:46.503Z,1.00
2024-01-24T01:46:20.416Z,3.20
2024-01-24T01:48:49.762Z,0.90
2024-01-24T01:51:18.563Z,2.70
2024-01-24T01:53:46.729Z,3.50
2024-01-24T01:56:14.427Z,3.00
2024-01-24T01:58:41.988Z,3.60
2024-01-24T02:01:09.664Z,3.30
2024-01-24T02:03:42.555Z,5.80
2024-01-24T02:06:10.370Z,4.90
2024-01-24T02:08:38.061Z,4.00
2024-01-24T02:11:05.508Z,1.30
2024-01-24T02:13:33.432Z,3.20
2024-01-24T02:16:01.197Z,4.10
2024-01-24T02:18:29.562Z,3.40
2024-01-24T02:20:57.376Z,1.90
2024-01-24T02:23:26.798Z,1.90
2024-01-24T02:25:54.332Z,2.80
2024-01-24T02:28:21.942Z,1.90
2024-01-24T02:30:49.601Z,0.80
2024-01-24T02:33:17.249Z,0.80
2024-01-24T02:35:45.180Z,2.00
2024-01-24T02:38:12.735Z,2.40
2024-01-24T02:40:40.401Z,1.40
2024-01-24T02:43:07.953Z,2.40
2024-01-24T02:45:35.486Z,1.60
2024-01-24T02:48:03.369Z,1.90
2024-01-24T02:50:31.034Z,2.10
2024-01-24T02:52:58.491Z,2.30
2024-01-24T02:55:26.046Z,2.80
2024-01-24T02:57:53.562Z,2.40
2024-01-24T03:00:21.436Z,3.30
2024-01-24T03:02:49.027Z,1.80
2024-01-24T03:05:16.616Z,3.40
2024-01-24T03:07:44.254Z,1.50
2024-01-24T03:10:11.832Z,4.80
2024-01-24T03:12:39.390Z,3.60
2024-01-24T03:15:07.466Z,2.20
2024-01-24T03:17:35.410Z,2.50
2024-01-24T03:20:03.055Z,2.30
2024-01-24T03:22:30.818Z,3.20
2024-01-24T03:24:58.478Z,4.40
2024-01-24T03:27:26.171Z,2.90
2024-01-24T03:29:53.799Z,4.30
2024-01-24T03:32:21.490Z,2.60
2024-01-24T03:34:55.979Z,2.60
2024-01-24T03:37:23.537Z,2.20
2024-01-24T03:39:51.119Z,2.00
2024-01-24T03:42:19.432Z,2.00
2024-01-24T03:44:47.043Z,3.60
2024-01-24T03:47:14.697Z,4.00
2024-01-24T03:49:42.300Z,3.70
2024-01-24T03:52:09.954Z,4.50
2024-01-24T03:54:38.211Z,6.40
2024-01-24T03:57:06.162Z,3.60
2024-01-24T03:59:33.604Z,4.00
2024-01-24T04:02:01.062Z,4.90
2024-01-24T04:04:28.619Z,5.10
2024-01-24T04:06:56.433Z,3.10
2024-01-24T04:09:24.159Z,2.60
2024-01-24T04:11:51.698Z,1.90
2024-01-24T04:14:19.275Z,4.80
2024-01-24T04:16:46.809Z,3.00
2024-01-24T04:19:14.374Z,4.50
2024-01-24T04:21:44.289Z,3.80
2024-01-24T04:24:12.103Z,3.10
2024-01-24T04:26:40.621Z,2.90
2024-01-24T04:29:11.805Z,2.60
2024-01-24T04:31:42.226Z,4.50
2024-01-24T04:34:09.882Z,4.00
2024-01-24T04:36:37.651Z,4.00
2024-01-24T04:39:05.310Z,3.30
2024-01-24T04:41:32.845Z,2.50
2024-01-24T04:44:00.302Z,3.10
2024-01-24T04:46:28.275Z,3.50
2024-01-24T04:48:55.985Z,3.60
2024-01-24T04:51:23.818Z,4.40
2024-01-24T04:53:51.856Z,3.40
2024-01-24T04:56:19.621Z,2.80
2024-01-24T04:58:47.173Z,4.60
2024-01-24T05:01:14.816Z,5.30
2024-01-24T05:03:42.660Z,5.70
2024-01-24T05:06:11.368Z,5.90
2024-01-24T05:08:39.860Z,3.40
2024-01-24T05:11:07.346Z,4.90
2024-01-24T05:13:34.971Z,3.40
2024-01-24T05:16:02.646Z,4.90
2024-01-24T05:18:30.272Z,4.80
2024-01-24T05:20:57.718Z,4.70
2024-01-24T05:23:25.206Z,3.50
2024-01-24T05:25:52.959Z,4.70
2024-01-24T05:28:20.422Z,6.50
2024-01-24T05:30:47.952Z,3.50
2024-01-24T05:33:15.699Z,2.30
2024-01-24T05:35:43.541Z,3.80
2024-01-24T05:38:11.157Z,3.60
2024-01-24T05:40:38.721Z,3.60
2024-01-24T05:43:06.467Z,2.90
2024-01-24T05:45:34.192Z,4.60
2024-01-24T05:48:01.915Z,5.20
2024-01-24T05:50:29.559Z,3.80
2024-01-24T05:52:57.017Z,2.50
2024-01-24T05:55:25.020Z,2.90
2024-01-24T05:57:52.879Z,5.20
2024-01-24T06:00:20.734Z,4.30
2024-01-24T06:02:48.939Z,5.60
2024-01-24T06:05:17.628Z,5.50
2024-01-24T06:07:45.464Z,3.90
2024-01-24T06:10:13.313Z,4.70
2024-01-24T06:12:40.875Z,3.90
2024-01-24T06:15:11.721Z,7.30
2024-01-24T06:17:39.249Z,3.20
2024-01-24T06:20:08.866Z,4.90
2024-01-24T06:22:36.868Z,3.60
2024-01-24T06:25:08.936Z,5.10
2024-01-24T06:27:37.418Z,3.10
2024-01-24T06:30:18.816Z,3.20
2024-01-24T06:35:18.966Z,3.90
2024-01-24T06:37:46.645Z,3.10
2024-01-24T06:40:15.842Z,2.90
2024-01-24T06:42:43.429Z,5.20
2024-01-24T06:45:11.479Z,4.40
2024-01-24T06:47:39.202Z,3.90
2024-01-24T06:50:14.424Z,3.40
2024-01-24T06:52:42.640Z,4.00
2024-01-24T06:55:10.934Z,3.40
2024-01-24T06:57:38.640Z,3.10
2024-01-24T07:00:07.160Z,5.10
2024-01-24T07:02:36.034Z,2.80
2024-01-24T07:05:04.716Z,3.70
2024-01-24T07:07:32.783Z,4.80
2024-01-24T07:10:00.566Z,3.20
2024-01-24T07:12:28.306Z,4.00
2024-01-24T07:14:55.921Z,5.30
2024-01-24T07:17:23.679Z,2.10
2024-01-24T07:19:52.768Z,4.10
2024-01-24T07:22:20.333Z,2.80
2024-01-24T07:24:48.079Z,4.60
2024-01-24T07:27:15.794Z,2.90
2024-01-24T07:29:43.322Z,6.30
2024-01-24T07:32:11.076Z,8.20
2024-01-24T07:34:40.596Z,5.60
2024-01-24T07:37:10.095Z,6.10
2024-01-24T07:39:37.781Z,6.00
2024-01-24T07:42:05.466Z,3.50
2024-01-24T07:44:33.487Z,3.70
2024-01-24T07:47:03.035Z,4.50
2024-01-24T07:49:31.770Z,4.10
2024-01-24T07:52:00.649Z,5.90
2024-01-24T07:54:28.768Z,6.00
2024-01-24T07:56:56.430Z,5.80
2024-01-24T07:59:24.002Z,4.50
2024-01-24T08:01:51.882Z,3.90
2024-01-24T08:04:24.062Z,5.80
2024-01-24T08:06:52.040Z,2.30
2024-01-24T08:09:19.812Z,4.70
2024-01-24T08:11:49.140Z,1.80
2024-01-24T08:14:21.239Z,4.30
2024-01-24T08:17:03.871Z,4.40
2024-01-24T08:19:31.874Z,3.70
2024-01-24T08:21:59.907Z,4.00
2024-01-24T08:24:27.670Z,3.30
2024-01-24T08:26:55.363Z,4.50
2024-01-24T08:29:30.026Z,5.10
2024-01-24T08:32:06.357Z,4.50
2024-01-24T08:34:36.627Z,4.60
2024-01-24T08:37:05.409Z,5.10
2024-01-24T08:39:33.767Z,3.20
2024-01-24T08:42:01.773Z,4.90
2024-01-24T08:44:29.953Z,5.90
2024-01-24T08:46:57.869Z,3.30
2024-01-24T08:49:25.392Z,5.10
2024-01-24T08:51:53.116Z,2.30
2024-01-24T08:54:22.243Z,3.60
2024-01-24T08:56:51.093Z,3.50
2024-01-24T08:59:21.037Z,4.40
2024-01-24T09:01:48.966Z,4.30
2024-01-24T09:04:18.167Z,3.10
2024-01-24T09:06:47.463Z,2.10
2024-01-24T09:09:16.845Z,3.70
2024-01-24T09:11:54.883Z,2.90
2024-01-24T09:14:26.009Z,4.60
2024-01-24T09:16:54.058Z,3.80
2024-01-24T09:19:23.176Z,3.00
2024-01-24T09:21:51.940Z,2.80
2024-01-24T09:24:20.059Z,3.20
2024-01-24T09:26:47.975Z,3.40
2024-01-24T09:29:15.655Z,4.30
2024-01-24T09:31:47.115Z,4.30
2024-01-24T09:34:15.854Z,2.80
2024-01-24T09:36:43.873Z,3.00
2024-01-24T09:39:11.904Z,4.30
2024-01-24T09:41:41.615Z,2.80
2024-01-24T09:44:15.840Z,3.10
2024-01-24T09:46:43.616Z,2.90
2024-01-24T09:49:11.851Z,2.40
2024-01-24T09:51:39.822Z,3.00
2024-01-24T09:54:08.026Z,4.30
2024-01-24T09:56:37.193Z,2.00
2024-01-24T09:59:05.542Z,2.60
2024-01-24T10:01:42.596Z,2.70
2024-01-24T10:04:14.317Z,2.70
2024-01-24T10:06:46.452Z,1.40
2024-01-24T10:09:16.603Z,2.40
2024-01-24T10:11:45.069Z,1.80
2024-01-24T10:14:15.920Z,2.30
2024-01-24T10:16:44.599Z,3.10
2024-01-24T10:19:12.853Z,2.90
2024-01-24T10:21:43.315Z,2.40
2024-01-24T10:24:12.975Z,2.20
2024-01-24T10:26:41.083Z,3.40
2024-01-24T10:29:13.367Z,4.70
2024-01-24T10:31:45.784Z,2.50
2024-01-24T10:34:16.735Z,2.20
2024-01-24T10:36:48.603Z,3.70
2024-01-24T10:39:18.969Z,2.40
2024-01-24T10:41:50.077Z,3.00
2024-01-24T10:44:21.387Z,2.50
2024-01-24T10:46:50.416Z,3.10
2024-01-24T10:49:18.660Z,2.40
2024-01-24T10:51:47.925Z,3.80
2024-01-24T10:54:16.685Z,1.10
2024-01-24T10:56:51.973Z,2.30
2024-01-24T10:59:21.320Z,3.10
2024-01-24T11:01:52.724Z,2.10
2024-01-24T11:04:26.994Z,2.80
2024-01-24T11:06:59.773Z,2.50
2024-01-24T11:09:38.461Z,2.10
2024-01-24T11:12:06.813Z,2.40
2024-01-24T11:14:35.388Z,3.30
2024-01-24T11:17:07.442Z,2.60
2024-01-24T11:19:35.585Z,1.80
2024-01-24T11:22:16.379Z,4.40
2024-01-24T11:24:53.769Z,1.50
2024-01-24T11:27:36.408Z,1.20
2024-01-24T11:30:19.946Z,1.20
2024-01-24T11:32:56.349Z,3.30
2024-01-24T11:35:27.627Z,3.20
2024-01-24T11:38:08.091Z,2.20
2024-01-24T11:40:41.634Z,1.30
2024-01-24T11:43:28.955Z,2.00
2024-01-24T11:46:00.394Z,5.30
2024-01-24T11:48:28.482Z,2.70
2024-01-24T11:50:57.178Z,2.10
2024-01-24T11:53:28.220Z,1.60
2024-01-24T11:56:00.264Z,1.80
2024-01-24T11:58:28.351Z,1.40
2024-01-24T12:00:57.198Z,1.80
2024-01-24T12:03:25.250Z,2.70
2024-01-24T12:05:53.360Z,2.80
2024-01-24T12:08:22.320Z,2.60
2024-01-24T12:10:52.900Z,6.40
2024-01-24T12:13:24.015Z,4.30
2024-01-24T12:15:52.395Z,6.40
2024-01-24T12:18:21.521Z,4.70
2024-01-24T12:20:57.884Z,3.40
2024-01-24T12:23:29.611Z,2.70
2024-01-24T12:26:00.108Z,3.30
2024-01-24T12:28:28.417Z,1.40
2024-01-24T12:30:56.522Z,1.60
2024-01-24T12:33:24.537Z,2.80
2024-01-24T12:35:52.653Z,3.20
2024-01-24T12:38:20.805Z,2.80
2024-01-24T12:40:50.739Z,3.50
2024-01-24T12:43:23.839Z,4.80
2024-01-24T12:45:53.195Z,2.80
2024-01-24T12:48:23.688Z,2.50
2024-01-24T12:50:52.965Z,1.90
2024-01-24T12:53:21.737Z,1.50
2024-01-24T12:55:51.297Z,1.30
2024-01-24T12:58:19.656Z,1.90
2024-01-24T13:00:50.810Z,3.60
2024-01-24T13:03:21.301Z,2.60
2024-01-24T13:05:52.707Z,2.20
2024-01-24T13:08:21.194Z,5.10
2024-01-24T13:10:50.026Z,5.40
2024-01-24T13:13:18.223Z,2.80
2024-01-24T13:15:46.413Z,2.30
2024-01-24T13:18:14.910Z,1.40
2024-01-24T13:20:43.555Z,2.50
2024-01-24T13:23:11.963Z,2.30
2024-01-24T13:25:41.450Z,1.50
2024-01-24T13:28:11.116Z,1.90
2024-01-24T13:30:40.225Z,1.90
2024-01-24T13:33:08.303Z,1.00
2024-01-24T13:35:36.392Z,1.70
2024-01-24T13:38:05.235Z,1.60
2024-01-24T13:40:33.047Z,0.70
2024-01-24T13:43:00.823Z,1.10
2024-01-24T13:45:28.665Z,0.50
2024-01-24T13:47:56.248Z,1.90
2024-01-24T13:50:23.933Z,0.70
2024-01-24T13:52:52.375Z,1.40
2024-01-24T13:55:20.094Z,1.70
2024-01-24T13:57:48.118Z,5.00
2024-01-24T14:00:17.020Z,3.80
2024-01-24T14:02:45.005Z,3.40
2024-01-24T14:05:13.026Z,3.30
2024-01-24T14:07:44.565Z,2.90
2024-01-24T14:10:13.196Z,3.60
2024-01-24T14:12:41.424Z,4.80
2024-01-24T14:15:19.553Z,1.60
2024-01-24T14:17:56.464Z,2.30
2024-01-24T14:20:24.175Z,1.60
2024-01-24T14:22:52.603Z,1.00
2024-01-24T14:25:20.223Z,1.50
2024-01-24T14:27:47.830Z,2.70
2024-01-24T14:30:16.091Z,3.30
2024-01-24T14:32:47.461Z,2.50
2024-01-24T14:35:19.036Z,2.40
2024-01-24T14:37:47.120Z,2.80
2024-01-24T14:40:15.866Z,4.50
2024-01-24T14:42:45.048Z,3.60
2024-01-24T14:45:12.902Z,2.30
2024-01-24T14:47:40.806Z,8.70
2024-01-24T14:50:09.111Z,5.80
2024-01-24T14:52:37.076Z,4.60
2024-01-24T14:55:05.752Z,4.90
2024-01-24T14:57:33.734Z,3.60
2024-01-24T15:00:01.589Z,4.00
2024-01-24T15:02:29.145Z,3.10
2024-01-24T15:04:58.427Z,2.50
2024-01-24T15:07:26.664Z,2.00
2024-01-24T15:09:54.522Z,4.20
2024-01-24T15:12:23.155Z,2.30
2024-01-24T15:14:50.945Z,1.10
2024-01-24T15:17:20.369Z,5.10
2024-01-24T15:19:50.167Z,1.90
2024-01-24T15:22:20.903Z,3.50
2024-01-24T15:24:51.188Z,3.40
2024-01-24T15:27:19.266Z,1.60
2024-01-24T15:29:47.024Z,1.50
2024-01-24T15:32:14.682Z,1.80
2024-01-24T15:34:42.381Z,2.30
2024-01-24T15:37:10.315Z,1.20
2024-01-24T15:39:38.095Z,0.80
2024-01-24T15:42:11.476Z,1.40
2024-01-24T15:44:39.263Z,1.60
2024-01-24T15:47:07.914Z,1.20
2024-01-24T15:49:39.967Z,1.00
2024-01-24T15:52:08.350Z,1.30
2024-01-24T15:54:38.695Z,1.90
2024-01-24T15:57:10.269Z,2.50
2024-01-24T15:59:38.404Z,3.00
2024-01-24T16:02:06.209Z,2.60
2024-01-24T16:04:37.312Z,3.00
2024-01-24T16:07:05.154Z,3.20
2024-01-24T16:09:33.020Z,2.90
2024-01-24T16:12:00.785Z,3.40
2024-01-24T16:14:28.751Z,3.50
2024-01-24T16:16:56.935Z,2.10
2024-01-24T16:19:24.900Z,3.20
2024-01-24T16:21:53.713Z,2.20
2024-01-24T16:24:21.770Z,2.80
2024-01-24T16:26:51.412Z,2.20
2024-01-24T16:29:19.440Z,1.50
2024-01-24T16:31:47.228Z,2.20
2024-01-24T16:34:15.091Z,1.40
2024-01-24T16:36:42.762Z,1.60
2024-01-24T16:39:11.204Z,1.80
2024-01-24T16:41:38.864Z,2.20
2024-01-24T16:44:06.453Z,3.40
2024-01-24T16:46:34.277Z,1.60
2024-01-24T16:49:01.917Z,4.20
2024-01-24T16:51:31.302Z,2.00
2024-01-24T16:53:59.098Z,0.90
2024-01-24T16:56:28.195Z,1.40
2024-01-24T16:58:56.159Z,1.80
2024-01-24T17:01:23.964Z,2.30
2024-01-24T17:03:51.994Z,2.90
2024-01-24T17:06:19.576Z,4.10
2024-01-24T17:08:48.079Z,1.00
2024-01-24T17:11:19.526Z,4.80
2024-01-24T17:13:47.357Z,2.60
2024-01-24T17:16:14.906Z,2.20
2024-01-24T17:18:44.171Z,4.10
2024-01-24T17:21:11.901Z,5.20
2024-01-24T17:23:39.445Z,7.20
2024-01-24T17:26:07.083Z,3.10
2024-01-24T17:28:34.747Z,1.70
2024-01-24T17:31:02.451Z,1.50
2024-01-24T17:33:30.249Z,4.30
2024-01-24T17:35:57.908Z,3.30
2024-01-24T17:38:26.078Z,3.70
2024-01-24T17:40:53.862Z,3.30
2024-01-24T17:43:21.619Z,2.10
2024-01-24T17:45:49.335Z,3.70
2024-01-24T17:48:17.492Z,1.30
2024-01-24T17:50:45.467Z,2.20
2024-01-24T17:53:14.503Z,2.30
2024-01-24T17:55:42.263Z,2.10
2024-01-24T17:58:10.569Z,1.30
2024-01-24T18:00:38.396Z,1.80
2024-01-24T18:03:06.378Z,2.20
2024-01-24T18:05:35.256Z,2.60
2024-01-24T18:08:04.728Z,1.40
2024-01-24T18:10:32.574Z,0.70
2024-01-24T18:13:01.135Z,1.00
2024-01-24T18:15:28.910Z,1.20
2024-01-24T18:18:00.930Z,1.70
2024-01-24T18:20:31.690Z,3.00
2024-01-24T18:23:00.155Z,2.50
2024-01-24T18:25:27.925Z,1.50
2024-01-24T18:27:55.704Z,1.80
2024-01-24T18:30:23.500Z,1.40
2024-01-24T18:32:51.351Z,1.50
2024-01-24T18:35:19.239Z,1.40
2024-01-24T18:37:46.896Z,1.50
2024-01-24T18:40:14.767Z,1.10
2024-01-24T18:42:42.964Z,2.60
2024-01-24T18:45:13.867Z,1.30
2024-01-24T18:47:41.903Z,1.20
2024-01-24T18:50:10.382Z,1.70
2024-01-24T18:52:38.684Z,2.40
2024-01-24T18:55:07.203Z,1.00
2024-01-24T18:57:34.954Z,1.70
2024-01-24T19:00:02.893Z,1.70
2024-01-24T19:02:30.840Z,1.20
2024-01-24T19:05:01.525Z,1.30
2024-01-24T19:07:30.724Z,1.30
2024-01-24T19:09:59.021Z,0.60
2024-01-24T19:12:31.867Z,1.40
2024-01-24T19:15:00.645Z,1.10
2024-01-24T19:17:28.428Z,0.80
2024-01-24T19:19:57.239Z,2.00
2024-01-24T19:22:25.069Z,0.30
2024-01-24T19:24:52.846Z,0.20
2024-01-24T19:27:20.595Z,0.80
2024-01-24T19:29:48.252Z,0.90
2024-01-24T19:32:16.134Z,1.00
2024-01-24T19:35:05.677Z,2.60
2024-01-24T19:37:34.210Z,1.20
2024-01-24T19:40:02.071Z,1.10
2024-01-24T19:42:29.829Z,0.30
2024-01-24T19:44:57.677Z,0.90
2024-01-24T19:47:29.299Z,0.40
2024-01-24T19:49:57.475Z,2.50
2024-01-24T19:52:25.339Z,1.60
2024-01-24T19:54:53.420Z,1.10
2024-01-24T19:57:22.604Z,0.90
2024-01-24T19:59:51.182Z,2.00
2024-01-24T20:02:18.777Z,2.00
2024-01-24T20:04:46.401Z,2.10
2024-01-24T20:07:14.540Z,3.70
2024-01-24T20:09:42.204Z,1.70
2024-01-24T20:12:10.101Z,1.60
2024-01-24T20:14:37.959Z,0.70
2024-01-24T20:17:05.836Z,1.20
2024-01-24T20:19:33.436Z,2.80
2024-01-24T20:22:01.290Z,1.90
2024-01-24T20:24:28.971Z,1.30
2024-01-24T20:26:57.394Z,0.90
2024-01-24T20:29:26.175Z,1.20
2024-01-24T20:31:54.243Z,0.60
2024-01-24T20:34:22.072Z,0.80
2024-01-24T20:36:50.005Z,1.00
2024-01-24T20:39:19.801Z,1.60
2024-01-24T20:41:48.167Z,1.20
2024-01-24T20:44:16.581Z,0.70
2024-01-24T20:46:44.503Z,1.00
2024-01-24T20:49:12.502Z,1.00
2024-01-24T20:51:40.959Z,1.60
2024-01-24T20:54:09.848Z,1.50
2024-01-24T20:56:37.521Z,2.20
2024-01-24T20:59:05.186Z,2.10
2024-01-24T21:01:32.940Z,2.60
2024-01-24T21:04:01.000Z,1.10
2024-01-24T21:06:29.873Z,1.50
2024-01-24T21:08:57.675Z,5.20
2024-01-24T21:11:25.304Z,5.80
2024-01-24T21:13:52.963Z,2.90
2024-01-24T21:16:21.045Z,1.50
2024-01-24T21:18:49.167Z,1.40
2024-01-24T21:21:16.924Z,1.20
2024-01-24T21:23:44.933Z,0.50
2024-01-24T21:26:12.602Z,1.00
2024-01-24T21:28:40.791Z,1.30
2024-01-24T21:31:09.930Z,1.10
2024-01-24T21:33:37.513Z,0.50
2024-01-24T21:36:05.506Z,1.40
2024-01-24T21:38:33.138Z,0.90
2024-01-24T21:41:00.641Z,1.30
2024-01-24T21:43:28.078Z,0.50
2024-01-24T21:45:55.483Z,1.00
2024-01-24T21:48:23.109Z,0.60
2024-01-24T21:50:50.859Z,1.50
2024-01-24T21:53:19.122Z,1.00
2024-01-24T21:55:46.559Z,0.50
2024-01-24T21:58:14.013Z,0.60
2024-01-24T22:00:41.672Z,1.20
2024-01-24T22:03:09.067Z,1.10
2024-01-24T22:05:36.608Z,0.90
2024-01-24T22:08:04.327Z,0.40
2024-01-24T22:10:32.353Z,1.00
2024-01-24T22:13:00.814Z,0.40
2024-01-24T22:15:28.590Z,1.30
2024-01-24T22:17:56.180Z,0.60
2024-01-24T22:20:23.679Z,1.10
2024-01-24T22:22:51.111Z,1.00
2024-01-24T22:25:19.652Z,0.30
2024-01-24T22:27:47.204Z,1.40
2024-01-24T22:30:15.328Z,1.20
2024-01-24T22:32:44.112Z,2.60
2024-01-24T22:35:12.084Z,1.90
2024-01-24T22:37:39.747Z,1.40
2024-01-24T22:40:08.477Z,2.30
2024-01-24T22:42:36.483Z,1.60
2024-01-24T22:45:04.321Z,1.60
2024-01-24T22:47:31.816Z,1.10
2024-01-24T22:49:59.818Z,1.20
2024-01-24T22:52:27.400Z,0.20
2024-01-24T22:54:55.044Z,1.30
2024-01-24T22:57:22.609Z,1.90
2024-01-24T22:59:50.093Z,2.10
2024-01-24T23:02:19.707Z,0.80
2024-01-24T23:04:47.774Z,0.80
2024-01-24T23:07:15.392Z,3.40
2024-01-24T23:09:42.929Z,2.30
2024-01-24T23:12:10.470Z,2.80
2024-01-24T23:14:41.694Z,1.70
2024-01-24T23:17:09.114Z,1.50
2024-01-24T23:19:36.643Z,1.90
2024-01-24T23:22:04.532Z,1.70
2024-01-24T23:24:32.245Z,1.00
2024-01-24T23:26:59.691Z,2.10
2024-01-24T23:29:27.091Z,1.30
2024-01-24T23:31:54.479Z,1.40
2024-01-24T23:34:21.947Z,1.30
2024-01-24T23:36:49.599Z,1.50
2024-01-24T23:39:17.781Z,1.80
2024-01-24T23:41:45.263Z,1.70
2024-01-24T23:44:15.606Z,1.90
2024-01-24T23:46:43.132Z,1.40
2024-01-24T23:49:11.488Z,3.20
2024-01-24T23:51:39.564Z,2.60
2024-01-24T23:54:07.301Z,2.80
2024-01-24T23:56:34.774Z,1.60
2024-01-24T23:59:02.189Z,1.90
